sensor_id;sensor_type;location;lat;lon;timestamp;P1;durP1;ratioP1;P2;durP2;ratioP2
462;SDS011;218;51.902;9.542;2023-09-12T00:01:03;10.50;;;9.50;;
462;SDS011;218;51.902;9.542;2023-09-12T00:03:31;10.77;;;9.83;;
462;SDS011;218;51.902;9.542;2023-09-12T00:06:01;9.87;;;9.10;;
462;SDS011;218;51.902;9.542;2023-09-12T00:08:29;12.07;;;11.07;;
462;SDS011;218;51.902;9.542;2023-09-12T00:11:02;10.43;;;9.53;;
462;SDS011;218;51.902;9.542;2023-09-12T00:13:30;10.93;;;10.13;;
462;SDS011;218;51.902;9.542;2023-09-12T00:15:57;10.70;;;9.80;;
462;SDS011;218;51.902;9.542;2023-09-12T00:18:25;12.20;;;10.90;;
462;SDS011;218;51.902;9.542;2023-09-12T00:20:52;10.90;;;10.00;;
462;SDS011;218;51.902;9.542;2023-09-12T00:23:21;11.67;;;10.77;;
462;SDS011;218;51.902;9.542;2023-09-12T00:25:49;11.73;;;10.43;;
462;SDS011;218;51.902;9.542;2023-09-12T00:28:16;11.23;;;10.23;;
462;SDS011;218;51.902;9.542;2023-09-12T00:30:43;10.90;;;10.10;;
462;SDS011;218;51.902;9.542;2023-09-12T00:33:10;10.20;;;9.20;;
462;SDS011;218;51.902;9.542;2023-09-12T00:35:37;11.57;;;10.43;;
462;SDS011;218;51.902;9.542;2023-09-12T00:38:04;9.93;;;9.23;;
462;SDS011;218;51.902;9.542;2023-09-12T00:40:33;11.10;;;10.10;;
462;SDS011;218;51.902;9.542;2023-09-12T00:43:00;11.67;;;10.57;;
462;SDS011;218;51.902;9.542;2023-09-12T00:45:26;11.40;;;10.50;;
462;SDS011;218;51.902;9.542;2023-09-12T00:47:53;10.10;;;9.30;;
462;SDS011;218;51.902;9.542;2023-09-12T00:50:21;10.20;;;9.40;;
462;SDS011;218;51.902;9.542;2023-09-12T00:52:50;10.73;;;10.00;;
462;SDS011;218;51.902;9.542;2023-09-12T00:55:19;11.43;;;9.83;;
462;SDS011;218;51.902;9.542;2023-09-12T00:57:47;11.00;;;10.17;;
462;SDS011;218;51.902;9.542;2023-09-12T01:00:15;9.43;;;8.73;;
462;SDS011;218;51.902;9.542;2023-09-12T01:02:43;11.37;;;10.47;;
462;SDS011;218;51.902;9.542;2023-09-12T01:05:12;14.37;;;11.20;;
462;SDS011;218;51.902;9.542;2023-09-12T01:07:40;11.03;;;9.93;;
462;SDS011;218;51.902;9.542;2023-09-12T01:10:08;10.93;;;10.03;;
462;SDS011;218;51.902;9.542;2023-09-12T01:12:36;11.97;;;10.83;;
462;SDS011;218;51.902;9.542;2023-09-12T01:15:05;10.60;;;9.80;;
462;SDS011;218;51.902;9.542;2023-09-12T01:17:38;9.73;;;9.03;;
462;SDS011;218;51.902;9.542;2023-09-12T01:20:06;11.40;;;10.37;;
462;SDS011;218;51.902;9.542;2023-09-12T01:22:46;11.93;;;10.93;;
462;SDS011;218;51.902;9.542;2023-09-12T01:25:40;10.97;;;9.97;;
462;SDS011;218;51.902;9.542;2023-09-12T01:28:19;12.60;;;11.40;;
462;SDS011;218;51.902;9.542;2023-09-12T01:30:48;11.77;;;10.30;;
462;SDS011;218;51.902;9.542;2023-09-12T01:33:18;10.60;;;9.67;;
462;SDS011;218;51.902;9.542;2023-09-12T01:35:45;11.63;;;10.73;;
462;SDS011;218;51.902;9.542;2023-09-12T01:38:12;10.17;;;9.37;;
462;SDS011;218;51.902;9.542;2023-09-12T01:40:42;10.60;;;9.80;;
462;SDS011;218;51.902;9.542;2023-09-12T01:43:12;10.60;;;9.80;;
462;SDS011;218;51.902;9.542;2023-09-12T01:45:44;13.50;;;12.30;;
462;SDS011;218;51.902;9.542;2023-09-12T01:48:13;10.90;;;9.90;;
462;SDS011;218;51.902;9.542;2023-09-12T01:50:46;10.73;;;9.90;;
462;SDS011;218;51.902;9.542;2023-09-12T01:53:14;11.20;;;10.27;;
462;SDS011;218;51.902;9.542;2023-09-12T01:55:42;12.47;;;11.10;;
462;SDS011;218;51.902;9.542;2023-09-12T01:58:10;11.40;;;10.60;;
462;SDS011;218;51.902;9.542;2023-09-12T02:00:38;12.70;;;10.97;;
462;SDS011;218;51.902;9.542;2023-09-12T02:03:07;11.20;;;10.30;;
462;SDS011;218;51.902;9.542;2023-09-12T02:05:33;10.93;;;9.93;;
462;SDS011;218;51.902;9.542;2023-09-12T02:08:02;10.57;;;9.57;;
462;SDS011;218;51.902;9.542;2023-09-12T02:10:32;11.87;;;10.13;;
462;SDS011;218;51.902;9.542;2023-09-12T02:12:59;12.60;;;10.43;;
462;SDS011;218;51.902;9.542;2023-09-12T02:15:26;10.83;;;10.00;;
462;SDS011;218;51.902;9.542;2023-09-12T02:17:53;11.53;;;10.60;;
462;SDS011;218;51.902;9.542;2023-09-12T02:20:21;12.07;;;10.87;;
462;SDS011;218;51.902;9.542;2023-09-12T02:22:48;10.90;;;9.90;;
462;SDS011;218;51.902;9.542;2023-09-12T02:25:14;11.83;;;10.83;;
462;SDS011;218;51.902;9.542;2023-09-12T02:27:42;12.13;;;11.23;;
462;SDS011;218;51.902;9.542;2023-09-12T02:30:09;10.73;;;9.70;;
462;SDS011;218;51.902;9.542;2023-09-12T02:32:36;10.43;;;9.57;;
462;SDS011;218;51.902;9.542;2023-09-12T02:35:03;10.37;;;9.30;;
462;SDS011;218;51.902;9.542;2023-09-12T02:37:31;11.20;;;10.20;;
462;SDS011;218;51.902;9.542;2023-09-12T02:39:58;11.20;;;10.30;;
462;SDS011;218;51.902;9.542;2023-09-12T02:42:25;12.53;;;11.50;;
462;SDS011;218;51.902;9.542;2023-09-12T02:44:52;12.50;;;11.30;;
462;SDS011;218;51.902;9.542;2023-09-12T02:47:19;11.50;;;10.50;;
462;SDS011;218;51.902;9.542;2023-09-12T02:49:46;10.80;;;9.90;;
462;SDS011;218;51.902;9.542;2023-09-12T02:52:13;11.37;;;10.47;;
462;SDS011;218;51.902;9.542;2023-09-12T02:54:41;12.10;;;11.03;;
462;SDS011;218;51.902;9.542;2023-09-12T02:57:08;14.97;;;11.50;;
462;SDS011;218;51.902;9.542;2023-09-12T02:59:35;13.43;;;11.73;;
462;SDS011;218;51.902;9.542;2023-09-12T03:02:02;12.43;;;11.10;;
462;SDS011;218;51.902;9.542;2023-09-12T03:04:29;12.80;;;11.60;;
462;SDS011;218;51.902;9.542;2023-09-12T03:06:56;12.53;;;11.43;;
462;SDS011;218;51.902;9.542;2023-09-12T03:09:23;15.47;;;11.03;;
462;SDS011;218;51.902;9.542;2023-09-12T03:11:51;11.40;;;10.40;;
462;SDS011;218;51.902;9.542;2023-09-12T03:14:18;11.93;;;10.87;;
462;SDS011;218;51.902;9.542;2023-09-12T03:16:45;14.93;;;13.60;;
462;SDS011;218;51.902;9.542;2023-09-12T03:19:12;13.60;;;12.30;;
462;SDS011;218;51.902;9.542;2023-09-12T03:21:39;12.67;;;11.67;;
462;SDS011;218;51.902;9.542;2023-09-12T03:24:06;13.53;;;12.53;;
462;SDS011;218;51.902;9.542;2023-09-12T03:26:33;11.87;;;10.93;;
462;SDS011;218;51.902;9.542;2023-09-12T03:29:02;13.20;;;12.13;;
462;SDS011;218;51.902;9.542;2023-09-12T03:31:29;13.33;;;12.27;;
462;SDS011;218;51.902;9.542;2023-09-12T03:33:56;12.60;;;11.40;;
462;SDS011;218;51.902;9.542;2023-09-12T03:36:23;14.90;;;13.50;;
462;SDS011;218;51.902;9.542;2023-09-12T03:38:50;13.20;;;11.97;;
462;SDS011;218;51.902;9.542;2023-09-12T03:41:17;11.50;;;10.70;;
462;SDS011;218;51.902;9.542;2023-09-12T03:43:44;13.03;;;11.93;;
462;SDS011;218;51.902;9.542;2023-09-12T03:46:12;12.77;;;11.53;;
462;SDS011;218;51.902;9.542;2023-09-12T03:48:40;12.17;;;11.17;;
462;SDS011;218;51.902;9.542;2023-09-12T03:51:06;13.20;;;11.90;;
462;SDS011;218;51.902;9.542;2023-09-12T03:53:33;14.40;;;13.30;;
462;SDS011;218;51.902;9.542;2023-09-12T03:56:00;16.27;;;14.63;;
462;SDS011;218;51.902;9.542;2023-09-12T03:58:27;13.60;;;12.30;;
462;SDS011;218;51.902;9.542;2023-09-12T04:00:54;15.90;;;14.50;;
462;SDS011;218;51.902;9.542;2023-09-12T04:03:22;14.70;;;13.27;;
462;SDS011;218;51.902;9.542;2023-09-12T04:05:49;15.47;;;14.17;;
462;SDS011;218;51.902;9.542;2023-09-12T04:08:17;15.80;;;14.30;;
462;SDS011;218;51.902;9.542;2023-09-12T04:10:43;14.50;;;13.00;;
462;SDS011;218;51.902;9.542;2023-09-12T04:13:10;15.90;;;14.20;;
462;SDS011;218;51.902;9.542;2023-09-12T04:15:37;14.47;;;13.20;;
462;SDS011;218;51.902;9.542;2023-09-12T04:18:04;14.73;;;13.50;;
462;SDS011;218;51.902;9.542;2023-09-12T04:20:33;15.97;;;14.77;;
462;SDS011;218;51.902;9.542;2023-09-12T04:23:00;17.17;;;15.30;;
462;SDS011;218;51.902;9.542;2023-09-12T04:25:28;15.47;;;14.17;;
462;SDS011;218;51.902;9.542;2023-09-12T04:27:55;15.47;;;14.00;;
462;SDS011;218;51.902;9.542;2023-09-12T04:30:22;15.27;;;13.97;;
462;SDS011;218;51.902;9.542;2023-09-12T04:32:49;16.47;;;14.83;;
462;SDS011;218;51.902;9.542;2023-09-12T04:35:16;15.57;;;13.97;;
462;SDS011;218;51.902;9.542;2023-09-12T04:37:45;17.67;;;14.80;;
462;SDS011;218;51.902;9.542;2023-09-12T04:40:12;16.13;;;14.87;;
462;SDS011;218;51.902;9.542;2023-09-12T04:42:39;17.40;;;15.47;;
462;SDS011;218;51.902;9.542;2023-09-12T04:45:06;16.43;;;15.00;;
462;SDS011;218;51.902;9.542;2023-09-12T04:47:34;16.00;;;14.60;;
462;SDS011;218;51.902;9.542;2023-09-12T04:50:00;15.60;;;14.10;;
462;SDS011;218;51.902;9.542;2023-09-12T04:52:27;15.80;;;14.40;;
462;SDS011;218;51.902;9.542;2023-09-12T04:54:56;16.10;;;14.67;;
462;SDS011;218;51.902;9.542;2023-09-12T04:57:22;17.77;;;16.13;;
462;SDS011;218;51.902;9.542;2023-09-12T04:59:50;16.70;;;15.40;;
462;SDS011;218;51.902;9.542;2023-09-12T05:02:17;15.80;;;14.50;;
462;SDS011;218;51.902;9.542;2023-09-12T05:04:44;16.70;;;15.30;;
462;SDS011;218;51.902;9.542;2023-09-12T05:07:12;16.57;;;15.07;;
462;SDS011;218;51.902;9.542;2023-09-12T05:09:39;15.00;;;13.67;;
462;SDS011;218;51.902;9.542;2023-09-12T05:12:07;15.90;;;14.60;;
462;SDS011;218;51.902;9.542;2023-09-12T05:14:34;15.83;;;14.13;;
462;SDS011;218;51.902;9.542;2023-09-12T05:17:01;15.13;;;13.77;;
462;SDS011;218;51.902;9.542;2023-09-12T05:19:29;15.73;;;13.80;;
462;SDS011;218;51.902;9.542;2023-09-12T05:21:56;17.00;;;15.47;;
462;SDS011;218;51.902;9.542;2023-09-12T05:24:23;16.20;;;14.60;;
462;SDS011;218;51.902;9.542;2023-09-12T05:26:50;14.87;;;13.53;;
462;SDS011;218;51.902;9.542;2023-09-12T05:29:18;15.80;;;14.50;;
462;SDS011;218;51.902;9.542;2023-09-12T05:31:45;14.77;;;13.30;;
462;SDS011;218;51.902;9.542;2023-09-12T05:34:12;15.97;;;14.67;;
462;SDS011;218;51.902;9.542;2023-09-12T05:36:39;15.40;;;13.97;;
462;SDS011;218;51.902;9.542;2023-09-12T05:39:06;14.17;;;12.97;;
462;SDS011;218;51.902;9.542;2023-09-12T05:41:33;14.80;;;13.50;;
462;SDS011;218;51.902;9.542;2023-09-12T05:44:00;15.97;;;14.23;;
462;SDS011;218;51.902;9.542;2023-09-12T05:46:28;14.07;;;12.97;;
462;SDS011;218;51.902;9.542;2023-09-12T05:48:55;14.47;;;13.37;;
462;SDS011;218;51.902;9.542;2023-09-12T05:51:22;14.20;;;13.13;;
462;SDS011;218;51.902;9.542;2023-09-12T05:53:48;14.27;;;13.10;;
462;SDS011;218;51.902;9.542;2023-09-12T05:56:15;14.43;;;13.20;;
462;SDS011;218;51.902;9.542;2023-09-12T05:58:42;14.23;;;13.00;;
462;SDS011;218;51.902;9.542;2023-09-12T06:01:09;14.30;;;13.27;;
462;SDS011;218;51.902;9.542;2023-09-12T06:03:37;13.70;;;12.70;;
462;SDS011;218;51.902;9.542;2023-09-12T06:06:04;14.40;;;13.10;;
462;SDS011;218;51.902;9.542;2023-09-12T06:08:31;14.83;;;13.23;;
462;SDS011;218;51.902;9.542;2023-09-12T06:10:58;13.47;;;12.43;;
462;SDS011;218;51.902;9.542;2023-09-12T06:13:25;14.53;;;13.30;;
462;SDS011;218;51.902;9.542;2023-09-12T06:15:52;14.53;;;13.07;;
462;SDS011;218;51.902;9.542;2023-09-12T06:18:19;14.53;;;13.33;;
462;SDS011;218;51.902;9.542;2023-09-12T06:20:47;13.87;;;12.90;;
462;SDS011;218;51.902;9.542;2023-09-12T06:23:15;14.40;;;13.20;;
462;SDS011;218;51.902;9.542;2023-09-12T06:25:42;15.20;;;13.83;;
462;SDS011;218;51.902;9.542;2023-09-12T06:28:09;15.30;;;13.83;;
462;SDS011;218;51.902;9.542;2023-09-12T06:30:36;15.87;;;14.47;;
462;SDS011;218;51.902;9.542;2023-09-12T06:33:03;17.27;;;15.60;;
462;SDS011;218;51.902;9.542;2023-09-12T06:35:31;17.67;;;16.07;;
462;SDS011;218;51.902;9.542;2023-09-12T06:38:00;15.50;;;14.30;;
462;SDS011;218;51.902;9.542;2023-09-12T06:40:26;15.37;;;14.10;;
462;SDS011;218;51.902;9.542;2023-09-12T06:42:53;16.80;;;15.17;;
462;SDS011;218;51.902;9.542;2023-09-12T06:45:20;15.60;;;14.30;;
462;SDS011;218;51.902;9.542;2023-09-12T06:47:47;16.10;;;14.63;;
462;SDS011;218;51.902;9.542;2023-09-12T06:50:14;19.63;;;17.83;;
462;SDS011;218;51.902;9.542;2023-09-12T06:52:41;17.90;;;16.30;;
462;SDS011;218;51.902;9.542;2023-09-12T06:55:09;19.97;;;18.27;;
462;SDS011;218;51.902;9.542;2023-09-12T06:57:36;17.27;;;15.43;;
462;SDS011;218;51.902;9.542;2023-09-12T07:00:03;15.40;;;14.10;;
462;SDS011;218;51.902;9.542;2023-09-12T07:02:32;17.50;;;15.83;;
462;SDS011;218;51.902;9.542;2023-09-12T07:04:58;16.70;;;15.30;;
462;SDS011;218;51.902;9.542;2023-09-12T07:07:25;14.77;;;13.53;;
462;SDS011;218;51.902;9.542;2023-09-12T07:09:52;18.07;;;16.57;;
462;SDS011;218;51.902;9.542;2023-09-12T07:12:20;17.53;;;16.07;;
462;SDS011;218;51.902;9.542;2023-09-12T07:14:47;16.50;;;14.90;;
462;SDS011;218;51.902;9.542;2023-09-12T07:17:16;16.80;;;15.47;;
462;SDS011;218;51.902;9.542;2023-09-12T07:19:43;15.30;;;14.00;;
462;SDS011;218;51.902;9.542;2023-09-12T07:22:10;16.37;;;15.10;;
462;SDS011;218;51.902;9.542;2023-09-12T07:24:37;14.93;;;13.90;;
462;SDS011;218;51.902;9.542;2023-09-12T07:27:04;15.97;;;14.63;;
462;SDS011;218;51.902;9.542;2023-09-12T07:29:32;16.53;;;15.13;;
462;SDS011;218;51.902;9.542;2023-09-12T07:31:59;15.93;;;14.30;;
462;SDS011;218;51.902;9.542;2023-09-12T07:34:26;15.23;;;13.93;;
462;SDS011;218;51.902;9.542;2023-09-12T07:36:53;16.83;;;15.33;;
462;SDS011;218;51.902;9.542;2023-09-12T07:39:20;13.50;;;12.40;;
462;SDS011;218;51.902;9.542;2023-09-12T07:41:46;13.70;;;12.67;;
462;SDS011;218;51.902;9.542;2023-09-12T07:44:14;14.17;;;12.87;;
462;SDS011;218;51.902;9.542;2023-09-12T07:46:43;15.57;;;14.17;;
462;SDS011;218;51.902;9.542;2023-09-12T07:49:10;15.17;;;13.70;;
462;SDS011;218;51.902;9.542;2023-09-12T07:51:37;14.37;;;13.27;;
462;SDS011;218;51.902;9.542;2023-09-12T07:54:04;12.33;;;11.43;;
462;SDS011;218;51.902;9.542;2023-09-12T07:56:31;12.73;;;11.73;;
462;SDS011;218;51.902;9.542;2023-09-12T07:58:57;11.97;;;11.07;;
462;SDS011;218;51.902;9.542;2023-09-12T08:01:24;12.27;;;10.90;;
462;SDS011;218;51.902;9.542;2023-09-12T08:03:53;11.50;;;10.53;;
462;SDS011;218;51.902;9.542;2023-09-12T08:06:20;12.00;;;10.87;;
462;SDS011;218;51.902;9.542;2023-09-12T08:08:49;10.63;;;9.83;;
462;SDS011;218;51.902;9.542;2023-09-12T08:11:15;10.00;;;9.30;;
462;SDS011;218;51.902;9.542;2023-09-12T08:13:43;10.10;;;9.20;;
462;SDS011;218;51.902;9.542;2023-09-12T08:16:12;9.90;;;9.20;;
462;SDS011;218;51.902;9.542;2023-09-12T08:18:39;11.80;;;10.90;;
462;SDS011;218;51.902;9.542;2023-09-12T08:21:07;11.30;;;10.30;;
462;SDS011;218;51.902;9.542;2023-09-12T08:23:34;13.37;;;12.37;;
462;SDS011;218;51.902;9.542;2023-09-12T08:26:01;13.07;;;11.97;;
462;SDS011;218;51.902;9.542;2023-09-12T08:28:28;12.90;;;11.90;;
462;SDS011;218;51.902;9.542;2023-09-12T08:30:55;12.43;;;11.33;;
462;SDS011;218;51.902;9.542;2023-09-12T08:33:22;14.20;;;12.80;;
462;SDS011;218;51.902;9.542;2023-09-12T08:35:48;12.90;;;11.80;;
462;SDS011;218;51.902;9.542;2023-09-12T08:38:18;16.20;;;14.70;;
462;SDS011;218;51.902;9.542;2023-09-12T08:40:47;13.30;;;12.10;;
462;SDS011;218;51.902;9.542;2023-09-12T08:43:15;13.50;;;12.50;;
462;SDS011;218;51.902;9.542;2023-09-12T08:45:42;13.90;;;12.53;;
462;SDS011;218;51.902;9.542;2023-09-12T08:48:09;13.20;;;12.10;;
462;SDS011;218;51.902;9.542;2023-09-12T08:50:37;13.27;;;12.17;;
462;SDS011;218;51.902;9.542;2023-09-12T08:53:04;10.57;;;9.60;;
462;SDS011;218;51.902;9.542;2023-09-12T08:55:33;12.00;;;8.83;;
462;SDS011;218;51.902;9.542;2023-09-12T08:58:02;10.07;;;9.27;;
462;SDS011;218;51.902;9.542;2023-09-12T09:00:31;9.70;;;9.10;;
462;SDS011;218;51.902;9.542;2023-09-12T09:02:58;9.97;;;9.07;;
462;SDS011;218;51.902;9.542;2023-09-12T09:05:25;10.40;;;9.60;;
462;SDS011;218;51.902;9.542;2023-09-12T09:07:54;8.30;;;7.70;;
462;SDS011;218;51.902;9.542;2023-09-12T09:10:22;9.90;;;8.93;;
462;SDS011;218;51.902;9.542;2023-09-12T09:12:51;10.30;;;9.30;;
462;SDS011;218;51.902;9.542;2023-09-12T09:15:21;10.37;;;9.47;;
462;SDS011;218;51.902;9.542;2023-09-12T09:17:52;9.87;;;8.97;;
462;SDS011;218;51.902;9.542;2023-09-12T09:20:25;9.90;;;9.10;;
462;SDS011;218;51.902;9.542;2023-09-12T09:22:59;8.70;;;7.90;;
462;SDS011;218;51.902;9.542;2023-09-12T09:25:30;9.00;;;8.20;;
462;SDS011;218;51.902;9.542;2023-09-12T09:27:59;9.30;;;8.60;;
462;SDS011;218;51.902;9.542;2023-09-12T09:30:38;8.63;;;8.03;;
462;SDS011;218;51.902;9.542;2023-09-12T09:33:10;8.50;;;7.90;;
462;SDS011;218;51.902;9.542;2023-09-12T09:35:38;8.80;;;8.07;;
462;SDS011;218;51.902;9.542;2023-09-12T09:38:07;8.67;;;8.07;;
462;SDS011;218;51.902;9.542;2023-09-12T09:40:35;8.33;;;7.63;;
462;SDS011;218;51.902;9.542;2023-09-12T09:43:04;8.20;;;7.50;;
462;SDS011;218;51.902;9.542;2023-09-12T09:45:31;6.10;;;5.70;;
462;SDS011;218;51.902;9.542;2023-09-12T09:47:59;7.40;;;6.70;;
462;SDS011;218;51.902;9.542;2023-09-12T09:50:32;12.47;;;9.03;;
462;SDS011;218;51.902;9.542;2023-09-12T09:53:00;8.20;;;7.00;;
462;SDS011;218;51.902;9.542;2023-09-12T09:55:29;6.53;;;6.03;;
462;SDS011;218;51.902;9.542;2023-09-12T09:57:57;6.00;;;5.50;;
462;SDS011;218;51.902;9.542;2023-09-12T10:00:25;5.97;;;5.57;;
462;SDS011;218;51.902;9.542;2023-09-12T10:02:55;6.03;;;5.53;;
462;SDS011;218;51.902;9.542;2023-09-12T10:05:22;5.90;;;5.50;;
462;SDS011;218;51.902;9.542;2023-09-12T10:07:49;6.50;;;6.03;;
462;SDS011;218;51.902;9.542;2023-09-12T10:10:17;6.47;;;5.97;;
462;SDS011;218;51.902;9.542;2023-09-12T10:12:49;6.13;;;5.67;;
462;SDS011;218;51.902;9.542;2023-09-12T10:15:18;6.23;;;5.73;;
462;SDS011;218;51.902;9.542;2023-09-12T10:17:50;6.13;;;5.63;;
462;SDS011;218;51.902;9.542;2023-09-12T10:20:24;5.33;;;4.93;;
462;SDS011;218;51.902;9.542;2023-09-12T10:22:56;6.00;;;5.60;;
462;SDS011;218;51.902;9.542;2023-09-12T10:25:33;5.60;;;5.10;;
462;SDS011;218;51.902;9.542;2023-09-12T10:28:03;5.30;;;5.00;;
462;SDS011;218;51.902;9.542;2023-09-12T10:30:31;5.97;;;5.57;;
462;SDS011;218;51.902;9.542;2023-09-12T10:33:00;6.03;;;5.43;;
462;SDS011;218;51.902;9.542;2023-09-12T10:35:29;5.67;;;5.27;;
462;SDS011;218;51.902;9.542;2023-09-12T10:37:58;5.67;;;5.27;;
462;SDS011;218;51.902;9.542;2023-09-12T10:40:29;5.47;;;5.00;;
462;SDS011;218;51.902;9.542;2023-09-12T10:42:56;5.20;;;4.80;;
462;SDS011;218;51.902;9.542;2023-09-12T10:45:26;5.20;;;4.70;;
462;SDS011;218;51.902;9.542;2023-09-12T10:47:54;5.20;;;4.83;;
462;SDS011;218;51.902;9.542;2023-09-12T10:50:22;5.27;;;4.87;;
462;SDS011;218;51.902;9.542;2023-09-12T10:52:49;5.40;;;5.00;;
462;SDS011;218;51.902;9.542;2023-09-12T10:55:16;4.10;;;3.80;;
462;SDS011;218;51.902;9.542;2023-09-12T10:58:02;5.10;;;4.70;;
462;SDS011;218;51.902;9.542;2023-09-12T11:00:30;5.00;;;4.50;;
462;SDS011;218;51.902;9.542;2023-09-12T11:06:06;5.07;;;4.77;;
462;SDS011;218;51.902;9.542;2023-09-12T11:09:00;4.50;;;4.20;;
462;SDS011;218;51.902;9.542;2023-09-12T11:11:43;4.73;;;4.40;;
462;SDS011;218;51.902;9.542;2023-09-12T11:14:12;5.10;;;4.70;;
462;SDS011;218;51.902;9.542;2023-09-12T11:16:40;4.73;;;4.43;;
462;SDS011;218;51.902;9.542;2023-09-12T11:19:13;5.33;;;4.93;;
462;SDS011;218;51.902;9.542;2023-09-12T11:21:42;4.90;;;4.50;;
462;SDS011;218;51.902;9.542;2023-09-12T11:24:10;5.80;;;5.37;;
462;SDS011;218;51.902;9.542;2023-09-12T11:26:51;5.93;;;5.40;;
462;SDS011;218;51.902;9.542;2023-09-12T11:29:20;4.80;;;4.40;;
462;SDS011;218;51.902;9.542;2023-09-12T11:31:51;5.57;;;5.00;;
462;SDS011;218;51.902;9.542;2023-09-12T11:34:24;5.23;;;4.83;;
462;SDS011;218;51.902;9.542;2023-09-12T11:36:54;4.63;;;4.23;;
462;SDS011;218;51.902;9.542;2023-09-12T11:39:22;5.10;;;4.70;;
462;SDS011;218;51.902;9.542;2023-09-12T11:41:50;5.57;;;5.17;;
462;SDS011;218;51.902;9.542;2023-09-12T11:44:18;4.87;;;4.43;;
462;SDS011;218;51.902;9.542;2023-09-12T11:46:47;4.80;;;4.40;;
462;SDS011;218;51.902;9.542;2023-09-12T11:49:15;4.87;;;4.47;;
462;SDS011;218;51.902;9.542;2023-09-12T11:51:48;4.90;;;4.60;;
462;SDS011;218;51.902;9.542;2023-09-12T11:54:17;5.20;;;4.70;;
462;SDS011;218;51.902;9.542;2023-09-12T11:56:46;4.17;;;3.87;;
462;SDS011;218;51.902;9.542;2023-09-12T11:59:14;4.13;;;3.83;;
462;SDS011;218;51.902;9.542;2023-09-12T12:01:43;4.17;;;3.87;;
462;SDS011;218;51.902;9.542;2023-09-12T12:04:11;3.53;;;3.33;;
462;SDS011;218;51.902;9.542;2023-09-12T12:06:38;3.90;;;3.60;;
462;SDS011;218;51.902;9.542;2023-09-12T12:09:06;4.30;;;4.00;;
462;SDS011;218;51.902;9.542;2023-09-12T12:11:35;4.47;;;4.07;;
462;SDS011;218;51.902;9.542;2023-09-12T12:14:09;4.40;;;4.10;;
462;SDS011;218;51.902;9.542;2023-09-12T12:16:37;4.63;;;4.33;;
462;SDS011;218;51.902;9.542;2023-09-12T12:19:04;5.07;;;4.67;;
462;SDS011;218;51.902;9.542;2023-09-12T12:21:31;4.10;;;3.80;;
462;SDS011;218;51.902;9.542;2023-09-12T12:23:58;4.97;;;4.67;;
462;SDS011;218;51.902;9.542;2023-09-12T12:26:27;4.77;;;4.47;;
462;SDS011;218;51.902;9.542;2023-09-12T12:28:54;4.37;;;4.07;;
462;SDS011;218;51.902;9.542;2023-09-12T12:31:21;5.50;;;5.10;;
462;SDS011;218;51.902;9.542;2023-09-12T12:33:49;4.73;;;4.43;;
462;SDS011;218;51.902;9.542;2023-09-12T12:36:18;4.60;;;4.00;;
462;SDS011;218;51.902;9.542;2023-09-12T12:38:46;4.33;;;3.93;;
462;SDS011;218;51.902;9.542;2023-09-12T12:41:13;4.40;;;3.10;;
462;SDS011;218;51.902;9.542;2023-09-12T12:43:43;3.70;;;3.50;;
462;SDS011;218;51.902;9.542;2023-09-12T12:46:10;2.93;;;2.73;;
462;SDS011;218;51.902;9.542;2023-09-12T12:48:38;3.67;;;3.37;;
462;SDS011;218;51.902;9.542;2023-09-12T12:51:14;3.40;;;3.13;;
462;SDS011;218;51.902;9.542;2023-09-12T12:53:43;3.57;;;3.27;;
462;SDS011;218;51.902;9.542;2023-09-12T12:56:14;3.17;;;2.97;;
462;SDS011;218;51.902;9.542;2023-09-12T12:58:48;3.40;;;3.20;;
462;SDS011;218;51.902;9.542;2023-09-12T13:01:16;3.00;;;2.70;;
462;SDS011;218;51.902;9.542;2023-09-12T13:03:43;2.97;;;2.77;;
462;SDS011;218;51.902;9.542;2023-09-12T13:06:11;2.93;;;2.63;;
462;SDS011;218;51.902;9.542;2023-09-12T13:08:40;2.70;;;2.50;;
462;SDS011;218;51.902;9.542;2023-09-12T13:11:08;3.00;;;2.80;;
462;SDS011;218;51.902;9.542;2023-09-12T13:13:35;3.07;;;2.87;;
462;SDS011;218;51.902;9.542;2023-09-12T13:16:04;2.87;;;2.67;;
462;SDS011;218;51.902;9.542;2023-09-12T13:18:31;2.87;;;2.67;;
462;SDS011;218;51.902;9.542;2023-09-12T13:20:58;2.87;;;2.67;;
462;SDS011;218;51.902;9.542;2023-09-12T13:23:25;2.53;;;2.33;;
462;SDS011;218;51.902;9.542;2023-09-12T13:25:52;2.53;;;2.40;;
462;SDS011;218;51.902;9.542;2023-09-12T13:28:19;2.80;;;2.60;;
462;SDS011;218;51.902;9.542;2023-09-12T13:30:48;2.10;;;2.00;;
462;SDS011;218;51.902;9.542;2023-09-12T13:33:17;3.10;;;2.90;;
462;SDS011;218;51.902;9.542;2023-09-12T13:35:43;3.10;;;2.80;;
462;SDS011;218;51.902;9.542;2023-09-12T13:38:10;2.00;;;1.90;;
462;SDS011;218;51.902;9.542;2023-09-12T13:40:37;2.80;;;2.60;;
462;SDS011;218;51.902;9.542;2023-09-12T13:43:05;2.97;;;2.77;;
462;SDS011;218;51.902;9.542;2023-09-12T13:45:32;3.70;;;3.40;;
462;SDS011;218;51.902;9.542;2023-09-12T13:48:00;3.73;;;3.43;;
462;SDS011;218;51.902;9.542;2023-09-12T13:50:29;3.30;;;3.10;;
462;SDS011;218;51.902;9.542;2023-09-12T13:52:57;3.47;;;3.17;;
462;SDS011;218;51.902;9.542;2023-09-12T13:55:25;3.10;;;2.90;;
462;SDS011;218;51.902;9.542;2023-09-12T13:57:51;4.73;;;3.17;;
462;SDS011;218;51.902;9.542;2023-09-12T14:00:18;3.30;;;3.00;;
462;SDS011;218;51.902;9.542;2023-09-12T14:02:45;3.27;;;3.07;;
462;SDS011;218;51.902;9.542;2023-09-12T14:05:12;3.67;;;3.23;;
462;SDS011;218;51.902;9.542;2023-09-12T14:07:40;3.67;;;3.08;;
462;SDS011;218;51.902;9.542;2023-09-12T14:10:08;3.00;;;2.80;;
462;SDS011;218;51.902;9.542;2023-09-12T14:12:35;4.40;;;4.10;;
462;SDS011;218;51.902;9.542;2023-09-12T14:15:02;3.10;;;2.90;;
462;SDS011;218;51.902;9.542;2023-09-12T14:17:31;3.00;;;2.80;;
462;SDS011;218;51.902;9.542;2023-09-12T14:19:59;3.93;;;3.63;;
462;SDS011;218;51.902;9.542;2023-09-12T14:22:26;3.53;;;3.23;;
462;SDS011;218;51.902;9.542;2023-09-12T14:24:55;3.00;;;2.77;;
462;SDS011;218;51.902;9.542;2023-09-12T14:27:23;3.40;;;3.10;;
462;SDS011;218;51.902;9.542;2023-09-12T14:29:50;4.23;;;3.60;;
462;SDS011;218;51.902;9.542;2023-09-12T14:32:17;3.80;;;3.50;;
462;SDS011;218;51.902;9.542;2023-09-12T14:34:45;3.83;;;3.40;;
462;SDS011;218;51.902;9.542;2023-09-12T14:37:12;3.57;;;3.27;;
462;SDS011;218;51.902;9.542;2023-09-12T14:39:39;4.30;;;3.70;;
462;SDS011;218;51.902;9.542;2023-09-12T14:42:08;4.63;;;3.20;;
462;SDS011;218;51.902;9.542;2023-09-12T14:44:37;3.10;;;2.90;;
462;SDS011;218;51.902;9.542;2023-09-12T14:47:04;3.10;;;2.90;;
462;SDS011;218;51.902;9.542;2023-09-12T14:49:31;4.17;;;3.80;;
462;SDS011;218;51.902;9.542;2023-09-12T14:51:58;2.83;;;2.57;;
462;SDS011;218;51.902;9.542;2023-09-12T14:54:26;3.40;;;3.10;;
462;SDS011;218;51.902;9.542;2023-09-12T14:56:53;4.30;;;2.83;;
462;SDS011;218;51.902;9.542;2023-09-12T14:59:21;3.07;;;2.87;;
462;SDS011;218;51.902;9.542;2023-09-12T15:01:48;3.50;;;3.20;;
462;SDS011;218;51.902;9.542;2023-09-12T15:04:16;3.60;;;3.40;;
462;SDS011;218;51.902;9.542;2023-09-12T15:06:43;3.27;;;3.07;;
462;SDS011;218;51.902;9.542;2023-09-12T15:09:10;3.20;;;2.90;;
462;SDS011;218;51.902;9.542;2023-09-12T15:11:37;4.57;;;3.63;;
462;SDS011;218;51.902;9.542;2023-09-12T15:14:04;3.57;;;3.37;;
462;SDS011;218;51.902;9.542;2023-09-12T15:16:33;2.80;;;2.60;;
462;SDS011;218;51.902;9.542;2023-09-12T15:19:00;3.43;;;3.23;;
462;SDS011;218;51.902;9.542;2023-09-12T15:21:28;3.00;;;2.80;;
462;SDS011;218;51.902;9.542;2023-09-12T15:23:55;4.70;;;3.30;;
462;SDS011;218;51.902;9.542;2023-09-12T15:26:22;3.57;;;3.27;;
462;SDS011;218;51.902;9.542;2023-09-12T15:28:50;3.60;;;3.40;;
462;SDS011;218;51.902;9.542;2023-09-12T15:31:17;3.50;;;3.20;;
462;SDS011;218;51.902;9.542;2023-09-12T15:33:45;4.10;;;3.20;;
462;SDS011;218;51.902;9.542;2023-09-12T15:36:12;2.97;;;2.77;;
462;SDS011;218;51.902;9.542;2023-09-12T15:38:40;3.07;;;2.87;;